createdAt,value
2022-09-13T00:00:16.301Z,8.98
2022-09-13T00:03:03.718Z,9.32
2022-09-13T00:05:50.831Z,8.93
2022-09-13T00:08:39.026Z,9.15
2022-09-13T00:11:27.889Z,10.30
2022-09-13T00:14:14.709Z,10.02
2022-09-13T00:17:01.561Z,10.07
2022-09-13T00:19:48.378Z,11.05
2022-09-13T00:22:35.377Z,10.60
2022-09-13T00:25:22.837Z,10.45
2022-09-13T00:28:09.683Z,10.23
2022-09-13T00:30:59.597Z,10.82
2022-09-13T00:33:46.485Z,10.40
2022-09-13T00:36:33.485Z,9.70
2022-09-13T00:39:20.634Z,10.27
2022-09-13T00:42:10.261Z,10.15
2022-09-13T00:44:58.577Z,10.93
2022-09-13T00:47:48.466Z,10.43
2022-09-13T00:50:39.215Z,10.50
2022-09-13T00:53:30.413Z,12.98
2022-09-13T00:56:22.819Z,10.73
2022-09-13T00:59:15.306Z,11.02
2022-09-13T01:02:03.670Z,10.82
2022-09-13T01:04:50.561Z,10.85
2022-09-13T01:07:37.875Z,11.85
2022-09-13T01:10:25.793Z,11.23
2022-09-13T01:13:18.023Z,10.05
2022-09-13T01:16:06.045Z,10.38
2022-09-13T01:18:52.953Z,10.75
2022-09-13T01:22:12.287Z,10.52
2022-09-13T01:25:27.960Z,10.30
2022-09-13T01:28:37.299Z,10.15
2022-09-13T01:31:31.237Z,10.00
2022-09-13T01:34:28.652Z,9.93
2022-09-13T01:37:32.822Z,10.43
2022-09-13T01:40:32.171Z,10.60
2022-09-13T01:43:34.595Z,10.95
2022-09-13T01:46:28.271Z,11.02
2022-09-13T01:49:19.760Z,11.93
2022-09-13T01:52:16.988Z,11.85
2022-09-13T01:55:10.935Z,12.00
2022-09-13T01:58:06.936Z,11.32
2022-09-13T02:01:00.932Z,11.70
2022-09-13T02:03:54.820Z,12.15
2022-09-13T02:06:45.664Z,12.07
2022-09-13T02:09:35.795Z,10.98
2022-09-13T02:12:25.439Z,11.43
2022-09-13T02:15:16.161Z,11.27
2022-09-13T02:18:08.140Z,11.38
2022-09-13T02:21:00.445Z,11.27
2022-09-13T02:23:51.165Z,11.45
2022-09-13T02:26:39.957Z,12.25
2022-09-13T02:29:28.996Z,11.70
2022-09-13T02:32:21.672Z,12.13
2022-09-13T02:35:13.361Z,11.88
2022-09-13T02:38:05.425Z,11.20
2022-09-13T02:40:57.974Z,11.15
2022-09-13T02:43:50.478Z,11.43
2022-09-13T02:47:11.502Z,10.68
2022-09-13T02:50:08.841Z,11.15
2022-09-13T02:53:04.441Z,10.85
2022-09-13T02:55:56.945Z,11.32
2022-09-13T02:58:47.593Z,10.55
2022-09-13T03:01:36.402Z,10.57
2022-09-13T03:04:23.397Z,10.27
2022-09-13T03:07:10.946Z,9.82
2022-09-13T03:10:04.054Z,10.13
2022-09-13T03:13:10.955Z,10.02
2022-09-13T03:16:09.711Z,9.63
2022-09-13T03:19:14.041Z,9.88
2022-09-13T03:22:20.994Z,9.75
2022-09-13T03:25:14.654Z,9.65
2022-09-13T03:28:12.962Z,9.20
2022-09-13T03:31:05.498Z,9.73
2022-09-13T03:33:58.194Z,9.05
2022-09-13T03:36:51.719Z,8.55
2022-09-13T03:39:43.559Z,8.98
2022-09-13T03:42:37.223Z,9.30
2022-09-13T03:45:28.219Z,9.07
2022-09-13T03:48:16.203Z,8.90
2022-09-13T03:51:03.247Z,9.10
2022-09-13T03:53:55.495Z,9.52
2022-09-13T03:56:42.378Z,9.10
2022-09-13T03:59:29.919Z,10.20
2022-09-13T04:02:17.645Z,9.52
2022-09-13T04:05:05.391Z,10.15
2022-09-13T04:07:52.212Z,9.43
2022-09-13T04:10:39.888Z,8.85
2022-09-13T04:13:27.127Z,9.02
2022-09-13T04:16:14.643Z,8.82
2022-09-13T04:19:01.497Z,8.80
2022-09-13T04:21:48.876Z,9.15
2022-09-13T04:24:36.622Z,8.45
2022-09-13T04:27:24.668Z,8.13
2022-09-13T04:30:12.368Z,8.07
2022-09-13T04:32:59.837Z,8.20
2022-09-13T04:35:46.677Z,8.70
2022-09-13T04:38:33.517Z,7.90
2022-09-13T04:41:20.362Z,9.00
2022-09-13T04:44:07.308Z,8.15
2022-09-13T04:46:55.016Z,8.60
2022-09-13T04:49:42.472Z,8.48
2022-09-13T04:52:29.452Z,7.65
2022-09-13T04:55:16.453Z,7.53
2022-09-13T04:58:04.122Z,8.45
2022-09-13T05:00:55.850Z,8.27
2022-09-13T05:03:42.753Z,8.02
2022-09-13T05:06:30.226Z,8.40
2022-09-13T05:09:17.105Z,8.38
2022-09-13T05:12:04.601Z,7.80
2022-09-13T05:14:51.400Z,7.82
2022-09-13T05:17:38.402Z,8.25
2022-09-13T05:20:25.332Z,8.10
2022-09-13T05:23:12.825Z,7.82
2022-09-13T05:26:01.133Z,8.68
2022-09-13T05:28:47.985Z,7.63
2022-09-13T05:31:36.775Z,7.75
2022-09-13T05:34:23.652Z,7.50
2022-09-13T05:37:10.498Z,7.70
2022-09-13T05:40:11.323Z,7.78
2022-09-13T05:42:59.013Z,7.03
2022-09-13T05:45:46.015Z,6.78
2022-09-13T05:48:34.093Z,7.20
2022-09-13T05:51:21.938Z,7.25
2022-09-13T05:54:11.319Z,7.30
2022-09-13T05:56:58.805Z,7.82
2022-09-13T05:59:47.188Z,7.10
2022-09-13T06:02:34.103Z,7.03
2022-09-13T06:05:21.025Z,7.30
2022-09-13T06:08:07.838Z,7.03
2022-09-13T06:10:56.338Z,6.65
2022-09-13T06:13:43.846Z,6.40
2022-09-13T06:16:30.703Z,6.82
2022-09-13T06:19:17.651Z,6.97
2022-09-13T06:22:04.562Z,6.78
2022-09-13T06:24:51.458Z,6.80
2022-09-13T06:27:38.290Z,7.00
2022-09-13T06:30:25.898Z,6.97
2022-09-13T06:33:12.736Z,6.80
2022-09-13T06:36:04.758Z,7.13
2022-09-13T06:38:51.678Z,7.20
2022-09-13T06:41:38.690Z,6.68
2022-09-13T06:44:25.680Z,6.32
2022-09-13T06:47:13.214Z,7.10
2022-09-13T06:50:00.166Z,6.85
2022-09-13T06:52:47.027Z,7.70
2022-09-13T06:55:33.847Z,7.38
2022-09-13T06:58:20.783Z,7.18
2022-09-13T07:01:13.743Z,7.70
2022-09-13T07:04:03.136Z,7.93
2022-09-13T07:06:50.175Z,6.78
2022-09-13T07:09:36.991Z,7.40
2022-09-13T07:12:23.817Z,7.40
2022-09-13T07:15:10.807Z,8.13
2022-09-13T07:17:57.623Z,8.65
2022-09-13T07:20:45.195Z,8.00
2022-09-13T07:23:33.136Z,8.15
2022-09-13T07:26:20.212Z,8.75
2022-09-13T07:29:10.519Z,8.93
2022-09-13T07:31:57.805Z,10.15
2022-09-13T07:34:44.642Z,10.00
2022-09-13T07:37:32.096Z,10.77
2022-09-13T07:40:18.978Z,11.20
2022-09-13T07:43:05.918Z,9.48
2022-09-13T07:46:00.838Z,10.00
2022-09-13T07:48:49.087Z,10.80
2022-09-13T07:51:38.764Z,10.05
2022-09-13T07:54:26.533Z,10.73
2022-09-13T07:57:13.370Z,11.23
2022-09-13T08:00:00.988Z,11.05
2022-09-13T08:02:47.873Z,11.02
2022-09-13T08:05:38.560Z,11.73
2022-09-13T08:08:25.392Z,10.40
2022-09-13T08:11:16.557Z,11.25
2022-09-13T08:14:04.545Z,11.75
2022-09-13T08:16:54.800Z,11.00
2022-09-13T08:19:41.723Z,10.30
2022-09-13T08:22:28.873Z,12.80
2022-09-13T08:25:15.901Z,11.18
2022-09-13T08:28:05.908Z,11.90
2022-09-13T08:30:52.777Z,12.75
2022-09-13T08:33:44.234Z,13.52
2022-09-13T08:36:33.022Z,11.95
2022-09-13T08:39:19.881Z,11.85
2022-09-13T08:42:19.261Z,14.18
2022-09-13T08:45:08.342Z,11.85
2022-09-13T08:47:58.362Z,12.93
2022-09-13T08:50:46.550Z,14.02
2022-09-13T08:53:42.844Z,13.07
2022-09-13T08:56:39.006Z,11.65
2022-09-13T08:59:45.538Z,12.52
2022-09-13T09:02:48.039Z,13.98
2022-09-13T09:05:46.882Z,13.55
2022-09-13T09:08:41.106Z,13.43
2022-09-13T09:11:35.571Z,13.93
2022-09-13T09:14:30.190Z,14.27
2022-09-13T09:17:22.310Z,13.52
2022-09-13T09:20:20.806Z,15.00
2022-09-13T09:23:17.826Z,13.07
2022-09-13T09:26:16.756Z,14.15
2022-09-13T09:29:11.287Z,12.80
2022-09-13T09:32:17.889Z,12.88
2022-09-13T09:35:16.653Z,14.10
2022-09-13T09:38:21.142Z,13.10
2022-09-13T09:41:15.357Z,15.48
2022-09-13T09:44:08.831Z,14.82
2022-09-13T09:46:59.194Z,13.73
2022-09-13T09:50:08.394Z,14.85
2022-09-13T09:53:02.683Z,17.15
2022-09-13T09:55:55.406Z,15.35
2022-09-13T09:58:44.335Z,15.68
2022-09-13T10:01:33.639Z,16.02
2022-09-13T10:04:21.989Z,15.45
2022-09-13T10:07:24.822Z,14.88
2022-09-13T10:10:23.729Z,15.90
2022-09-13T10:13:16.711Z,18.50
2022-09-13T10:16:05.237Z,17.27
2022-09-13T10:18:52.140Z,16.95
2022-09-13T10:21:38.988Z,16.73
2022-09-13T10:24:27.631Z,14.95
2022-09-13T10:27:25.348Z,17.55
2022-09-13T10:30:30.946Z,18.70
2022-09-13T10:33:26.248Z,17.05
2022-09-13T10:36:25.136Z,15.20
2022-09-13T10:39:27.943Z,17.10
2022-09-13T10:42:23.365Z,15.93
2022-09-13T10:45:22.417Z,18.02
2022-09-13T10:48:12.855Z,17.75
2022-09-13T10:51:01.918Z,17.23
2022-09-13T10:53:48.808Z,16.55
2022-09-13T10:56:35.832Z,13.35
2022-09-13T10:59:25.238Z,10.90
2022-09-13T11:02:48.642Z,10.10
2022-09-13T11:05:42.706Z,12.75
2022-09-13T11:08:42.214Z,11.32
2022-09-13T11:11:34.650Z,10.10
2022-09-13T11:14:42.558Z,9.10
2022-09-13T11:17:49.399Z,8.30
2022-09-13T11:20:44.834Z,7.57
2022-09-13T11:23:48.609Z,10.15
2022-09-13T11:26:51.990Z,7.75
2022-09-13T11:29:58.245Z,9.45
2022-09-13T11:33:16.742Z,8.50
2022-09-13T11:36:30.834Z,7.28
2022-09-13T11:39:30.374Z,8.50
2022-09-13T11:42:32.322Z,8.30
2022-09-13T11:45:23.058Z,8.10
2022-09-13T11:48:32.454Z,7.70
2022-09-13T11:51:30.207Z,8.55
2022-09-13T11:54:30.790Z,6.55
2022-09-13T11:57:22.894Z,7.53
2022-09-13T12:00:19.656Z,6.38
2022-09-13T12:03:16.281Z,9.05
2022-09-13T12:06:10.652Z,9.65
2022-09-13T12:09:02.165Z,8.45
2022-09-13T12:11:53.372Z,6.47
2022-09-13T12:14:46.719Z,7.35
2022-09-13T12:17:39.409Z,7.50
2022-09-13T12:20:32.778Z,9.02
2022-09-13T12:23:26.605Z,8.20
2022-09-13T12:26:20.332Z,7.40
2022-09-13T12:29:15.111Z,6.30
2022-09-13T12:32:04.314Z,7.70
2022-09-13T12:34:57.891Z,7.25
2022-09-13T12:38:11.695Z,7.75
2022-09-13T12:41:14.633Z,8.98
2022-09-13T12:44:22.489Z,8.77
2022-09-13T12:47:22.188Z,7.60
2022-09-13T12:50:44.472Z,6.82
2022-09-13T12:54:04.873Z,5.90
2022-09-13T12:57:03.488Z,7.25
2022-09-13T13:00:12.155Z,7.70
2022-09-13T13:03:10.995Z,7.00
2022-09-13T13:06:09.974Z,8.27
2022-09-13T13:09:01.482Z,6.70
2022-09-13T13:11:50.003Z,7.80
2022-09-13T13:14:52.485Z,6.75
2022-09-13T13:17:47.620Z,7.22
2022-09-13T13:21:06.610Z,7.82
2022-09-13T13:24:30.849Z,8.25
2022-09-13T13:27:36.350Z,7.10
2022-09-13T13:30:51.988Z,9.07
2022-09-13T13:33:48.028Z,8.05
2022-09-13T13:36:45.358Z,7.20
2022-09-13T13:39:37.943Z,7.80
2022-09-13T13:42:26.538Z,7.63
2022-09-13T13:45:21.740Z,7.90
2022-09-13T13:48:14.307Z,7.75
2022-09-13T13:51:19.080Z,6.88
2022-09-13T13:54:29.954Z,10.05
2022-09-13T13:57:24.135Z,8.23
2022-09-13T14:00:14.405Z,7.13
2022-09-13T14:03:14.865Z,7.47
2022-09-13T14:06:10.375Z,8.68
2022-09-13T14:09:05.811Z,8.07
2022-09-13T14:12:04.684Z,9.20
2022-09-13T14:15:14.734Z,8.63
2022-09-13T14:18:27.805Z,9.65
2022-09-13T14:21:24.076Z,9.45
2022-09-13T14:24:19.021Z,8.10
2022-09-13T14:27:09.548Z,7.60
2022-09-13T14:29:58.869Z,6.70
2022-09-13T14:32:49.982Z,6.07
2022-09-13T14:35:38.954Z,6.18
2022-09-13T14:38:32.818Z,5.40
2022-09-13T14:41:21.350Z,7.28
2022-09-13T14:44:22.452Z,6.38
2022-09-13T14:47:19.193Z,5.65
2022-09-13T14:50:12.214Z,6.95
2022-09-13T14:53:02.487Z,6.25
2022-09-13T14:55:53.986Z,7.93
2022-09-13T14:58:44.683Z,7.00
2022-09-13T15:01:34.105Z,8.30
2022-09-13T15:04:22.798Z,7.82
2022-09-13T15:07:20.821Z,6.45
2022-09-13T15:10:20.868Z,6.85
2022-09-13T15:13:09.888Z,6.13
2022-09-13T15:15:56.971Z,5.82
2022-09-13T15:18:43.873Z,6.68
2022-09-13T15:21:35.018Z,6.20
2022-09-13T15:24:26.785Z,5.60
2022-09-13T15:27:20.554Z,6.22
2022-09-13T15:30:21.118Z,5.50
2022-09-13T15:33:29.835Z,4.68
2022-09-13T15:36:27.714Z,5.63
2022-09-13T15:39:16.670Z,5.10
2022-09-13T15:42:03.833Z,5.65
2022-09-13T15:44:51.302Z,5.60
2022-09-13T15:47:38.136Z,5.28
2022-09-13T15:50:28.167Z,4.97
2022-09-13T15:53:15.199Z,4.60
2022-09-13T15:56:03.227Z,4.90
2022-09-13T15:58:50.129Z,5.15
2022-09-13T16:01:37.725Z,5.35
2022-09-13T16:04:24.624Z,4.45
2022-09-13T16:07:11.441Z,5.05
2022-09-13T16:09:58.831Z,4.65
2022-09-13T16:12:45.939Z,4.72
2022-09-13T16:15:32.843Z,4.82
2022-09-13T16:18:22.769Z,3.55
2022-09-13T16:21:09.868Z,4.25
2022-09-13T16:23:56.912Z,3.28
2022-09-13T16:26:43.944Z,3.17
2022-09-13T16:29:31.168Z,2.75
2022-09-13T16:32:18.422Z,2.80
2022-09-13T16:35:07.015Z,2.90
2022-09-13T16:37:54.642Z,3.03
2022-09-13T16:40:42.577Z,2.97
2022-09-13T16:43:29.424Z,3.00
2022-09-13T16:46:17.250Z,3.00
2022-09-13T16:49:04.139Z,3.33
2022-09-13T16:51:52.111Z,2.88
2022-09-13T16:54:38.997Z,3.40
2022-09-13T16:57:25.903Z,3.00
2022-09-13T17:00:14.271Z,3.33
2022-09-13T17:03:01.200Z,3.22
2022-09-13T17:05:58.287Z,3.40
2022-09-13T17:08:50.419Z,3.03
2022-09-13T17:11:39.475Z,2.80
2022-09-13T17:14:26.488Z,3.35
2022-09-13T17:17:14.756Z,3.13
2022-09-13T17:20:04.720Z,2.80
2022-09-13T17:22:52.457Z,3.22
2022-09-13T17:25:45.200Z,3.20
2022-09-13T17:28:34.556Z,5.45
2022-09-13T17:31:21.489Z,3.25
2022-09-13T17:34:09.309Z,2.85
2022-09-13T17:36:56.661Z,2.50
2022-09-13T17:39:43.581Z,2.63
2022-09-13T17:42:31.092Z,2.88
2022-09-13T17:45:18.347Z,3.30
2022-09-13T17:48:05.214Z,2.80
2022-09-13T17:50:52.453Z,2.80
2022-09-13T17:53:40.877Z,2.00
2022-09-13T17:56:29.664Z,2.10
2022-09-13T17:59:20.000Z,1.90
2022-09-13T18:02:07.727Z,1.70
2022-09-13T18:04:54.627Z,1.60
2022-09-13T18:07:41.435Z,1.63
2022-09-13T18:10:49.233Z,1.60
2022-09-13T18:13:35.955Z,1.85
2022-09-13T18:16:25.544Z,1.60
2022-09-13T18:19:12.843Z,1.77
2022-09-13T18:22:00.779Z,1.38
2022-09-13T18:24:47.632Z,1.60
2022-09-13T18:27:34.495Z,1.45
2022-09-13T18:30:21.317Z,1.50
2022-09-13T18:33:11.515Z,1.42
2022-09-13T21:45:32.284Z,2.00
2022-09-13T21:48:22.370Z,1.67
2022-09-13T21:51:19.600Z,1.60
2022-09-13T21:54:13.501Z,1.65
2022-09-13T21:57:16.909Z,2.00
2022-09-13T22:00:23.991Z,1.75
2022-09-13T22:03:15.222Z,2.00
2022-09-13T22:06:14.600Z,1.85
2022-09-13T22:09:25.056Z,1.92
2022-09-13T22:15:18.051Z,1.80
2022-09-13T22:18:45.573Z,2.28
2022-09-13T22:21:59.798Z,1.95
2022-09-13T22:28:20.397Z,2.05
2022-09-13T22:31:15.086Z,1.70
2022-09-13T22:34:10.465Z,2.05
2022-09-13T22:37:16.792Z,1.90
2022-09-13T22:40:10.418Z,2.00
2022-09-13T22:46:54.835Z,1.80
2022-09-13T22:49:48.819Z,1.73
2022-09-13T22:52:48.355Z,2.03
2022-09-13T22:59:25.254Z,1.90
2022-09-13T23:26:14.852Z,1.75
2022-09-13T23:29:09.579Z,1.55
2022-09-13T23:46:03.295Z,1.80
2022-09-13T23:52:18.611Z,1.73
2022-09-13T23:58:34.532Z,2.20
